createdAt,value
2022-08-22T00:02:10.336Z,998.81
2022-08-22T00:03:01.583Z,998.39
2022-08-22T00:03:12.560Z,998.84
2022-08-22T00:07:10.251Z,998.87
2022-08-22T00:12:10.169Z,998.90
2022-08-22T00:17:10.105Z,998.93
2022-08-22T00:22:10.039Z,998.90
2022-08-22T00:27:09.977Z,998.86
2022-08-22T00:32:10.353Z,998.93
2022-08-22T00:37:09.851Z,998.93
2022-08-22T00:42:09.774Z,998.99
2022-08-22T00:47:09.718Z,999.00
2022-08-22T00:52:09.634Z,999.00
2022-08-22T00:57:09.572Z,999.03
2022-08-22T01:02:09.504Z,998.98
2022-08-22T01:07:09.464Z,998.94
2022-08-22T01:12:09.368Z,998.93
2022-08-22T01:17:09.319Z,998.89
2022-08-22T01:22:09.238Z,998.95
2022-08-22T01:27:09.179Z,998.91
2022-08-22T01:32:09.105Z,998.99
2022-08-22T01:37:09.055Z,998.98
2022-08-22T01:42:08.978Z,998.94
2022-08-22T01:47:08.921Z,998.97
2022-08-22T01:52:08.840Z,998.95
2022-08-22T01:57:08.801Z,998.95
2022-08-22T02:02:08.713Z,999.00
2022-08-22T02:07:08.659Z,998.91
2022-08-22T02:12:13.916Z,998.96
2022-08-22T02:17:09.559Z,998.97
2022-08-22T02:22:08.449Z,998.94
2022-08-22T02:27:08.403Z,998.91
2022-08-22T02:32:08.332Z,998.91
2022-08-22T02:37:08.269Z,998.89
2022-08-22T02:42:08.199Z,998.93
2022-08-22T02:47:08.134Z,998.85
2022-08-22T02:52:08.061Z,998.86
2022-08-22T02:57:13.069Z,998.77
2022-08-22T03:02:07.940Z,998.78
2022-08-22T03:07:07.880Z,998.79
2022-08-22T03:12:07.810Z,998.87
2022-08-22T03:17:07.743Z,998.78
2022-08-22T03:22:07.687Z,998.75
2022-08-22T03:27:07.611Z,998.74
2022-08-22T03:32:07.554Z,998.77
2022-08-22T03:37:07.483Z,998.77
2022-08-22T03:42:07.414Z,998.78
2022-08-22T03:47:07.348Z,998.80
2022-08-22T03:52:07.282Z,998.84
2022-08-22T03:57:07.227Z,998.78
2022-08-22T04:02:31.470Z,998.85
2022-08-22T04:07:15.843Z,998.85
2022-08-22T04:12:08.046Z,998.86
2022-08-22T04:17:06.956Z,998.91
2022-08-22T04:22:06.889Z,998.94
2022-08-22T04:27:06.824Z,998.96
2022-08-22T04:32:06.754Z,999.04
2022-08-22T04:37:06.691Z,999.01
2022-08-22T04:42:30.831Z,999.11
2022-08-22T04:47:07.577Z,999.17
2022-08-22T04:52:06.490Z,999.10
2022-08-22T04:57:06.429Z,999.26
2022-08-22T05:02:06.687Z,999.29
2022-08-22T05:07:06.297Z,999.35
2022-08-22T05:12:06.240Z,999.40
2022-08-22T05:17:06.165Z,999.37
2022-08-22T05:22:06.119Z,999.44
2022-08-22T05:27:06.036Z,999.47
2022-08-22T05:32:05.970Z,999.48
2022-08-22T05:37:08.076Z,999.54
2022-08-22T05:42:05.841Z,999.61
2022-08-22T05:47:05.775Z,999.73
2022-08-22T05:52:06.043Z,999.70
2022-08-22T05:57:07.914Z,999.71
2022-08-22T06:02:05.656Z,999.70
2022-08-22T06:07:05.515Z,999.72
2022-08-22T06:12:05.442Z,999.72
2022-08-22T06:17:05.379Z,999.81
2022-08-22T06:22:05.320Z,999.72
2022-08-22T06:27:05.247Z,999.76
2022-08-22T06:32:05.184Z,999.69
2022-08-22T06:37:05.119Z,999.75
2022-08-22T06:42:05.064Z,999.79
2022-08-22T06:47:04.987Z,999.84
2022-08-22T06:52:04.933Z,999.81
2022-08-22T06:57:04.842Z,999.82
2022-08-22T07:02:04.853Z,999.85
2022-08-22T07:07:04.714Z,999.82
2022-08-22T07:12:04.658Z,999.79
2022-08-22T07:17:04.649Z,999.81
2022-08-22T07:22:04.524Z,999.82
2022-08-22T07:27:04.818Z,999.81
2022-08-22T07:32:04.395Z,999.78
2022-08-22T07:37:04.338Z,999.81
2022-08-22T07:42:04.275Z,999.78
2022-08-22T07:47:04.207Z,999.80
2022-08-22T07:52:04.153Z,999.77
2022-08-22T07:57:04.076Z,999.75
2022-08-22T08:02:04.011Z,999.76
2022-08-22T08:07:03.948Z,999.68
2022-08-22T08:12:03.882Z,999.73
2022-08-22T08:17:03.816Z,999.85
2022-08-22T08:22:03.851Z,999.76
2022-08-22T08:27:03.775Z,999.75
2022-08-22T08:32:03.710Z,999.78
2022-08-22T08:37:03.579Z,999.76
2022-08-22T08:42:03.558Z,999.75
2022-08-22T08:47:03.477Z,999.88
2022-08-22T08:52:03.429Z,999.91
2022-08-22T08:57:03.354Z,999.87
2022-08-22T09:02:03.244Z,999.83
2022-08-22T09:07:03.182Z,999.83
2022-08-22T09:12:03.145Z,999.83
2022-08-22T09:17:03.045Z,999.80
2022-08-22T09:22:02.983Z,999.79
2022-08-22T09:27:02.921Z,999.80
2022-08-22T09:32:02.851Z,999.72
2022-08-22T09:37:02.779Z,999.79
2022-08-22T09:42:02.806Z,999.78
2022-08-22T09:47:02.661Z,999.74
2022-08-22T09:52:05.269Z,999.68
2022-08-22T09:57:03.549Z,999.80
2022-08-22T10:02:02.476Z,999.67
2022-08-22T10:07:02.393Z,999.68
2022-08-22T10:12:02.350Z,999.81
2022-08-22T10:17:02.276Z,999.84
2022-08-22T10:22:02.212Z,999.84
2022-08-22T10:27:02.142Z,999.76
2022-08-22T10:32:05.985Z,999.78
2022-08-22T10:37:02.026Z,999.86
2022-08-22T10:42:01.954Z,999.89
2022-08-22T10:47:01.896Z,999.78
2022-08-22T10:52:14.862Z,999.76
2022-08-22T10:57:02.796Z,999.81
2022-08-22T11:02:01.747Z,999.75
2022-08-22T11:07:01.636Z,999.76
2022-08-22T11:12:01.567Z,999.75
2022-08-22T11:17:01.505Z,999.80
2022-08-22T11:22:03.802Z,999.80
2022-08-22T11:27:01.379Z,999.71
2022-08-22T11:32:05.710Z,999.75
2022-08-22T11:37:01.254Z,999.67
2022-08-22T11:42:01.183Z,999.66
2022-08-22T11:47:01.124Z,999.64
2022-08-22T11:52:01.066Z,999.63
2022-08-22T11:57:00.987Z,999.53
2022-08-22T12:02:00.979Z,999.51
2022-08-22T12:07:00.858Z,999.59
2022-08-22T12:12:00.802Z,999.49
2022-08-22T12:17:00.730Z,999.42
2022-08-22T12:22:00.679Z,999.41
2022-08-22T12:27:00.607Z,999.38
2022-08-22T12:32:00.546Z,999.36
2022-08-22T12:37:00.493Z,999.28
2022-08-22T12:42:00.423Z,999.15
2022-08-22T12:47:00.359Z,999.11
2022-08-22T12:52:04.474Z,999.12
2022-08-22T12:57:00.222Z,999.04
2022-08-22T13:02:00.166Z,999.02
2022-08-22T13:07:00.094Z,999.06
2022-08-22T13:12:00.038Z,999.02
2022-08-22T13:16:59.966Z,998.94
2022-08-22T13:22:00.948Z,998.94
2022-08-22T13:26:59.848Z,998.95
2022-08-22T13:31:59.793Z,998.98
2022-08-22T13:36:59.712Z,998.99
2022-08-22T13:41:59.682Z,998.91
2022-08-22T13:47:13.810Z,998.95
2022-08-22T13:52:00.560Z,998.93
2022-08-22T13:56:59.465Z,999.03
2022-08-22T14:01:59.456Z,998.96
2022-08-22T14:06:59.326Z,998.96
2022-08-22T14:11:59.268Z,998.86
2022-08-22T14:16:59.215Z,998.90
2022-08-22T14:21:59.507Z,998.84
2022-08-22T14:26:59.075Z,998.90
2022-08-22T14:31:59.011Z,998.90
2022-08-22T14:36:58.932Z,998.84
2022-08-22T14:42:03.438Z,998.86
2022-08-22T14:46:59.011Z,998.87
2022-08-22T14:51:58.746Z,998.87
2022-08-22T14:56:58.679Z,998.84
2022-08-22T15:01:58.725Z,998.83
2022-08-22T15:06:58.619Z,998.89
2022-08-22T15:11:58.484Z,998.86
2022-08-22T15:16:58.405Z,998.86
2022-08-22T15:21:58.363Z,998.82
2022-08-22T15:26:58.278Z,998.80
2022-08-22T15:31:58.242Z,998.87
2022-08-22T15:36:58.152Z,998.80
2022-08-22T15:41:58.092Z,998.76
2022-08-22T15:46:58.009Z,998.72
2022-08-22T15:51:57.972Z,998.76
2022-08-22T15:56:57.889Z,998.77
2022-08-22T16:01:57.899Z,998.70
2022-08-22T16:06:57.742Z,998.69
2022-08-22T16:11:57.694Z,998.73
2022-08-22T16:16:57.627Z,998.70
2022-08-22T16:21:57.563Z,998.73
2022-08-22T16:26:57.509Z,998.73
2022-08-22T16:31:57.444Z,998.71
2022-08-22T16:36:57.378Z,998.72
2022-08-22T16:41:57.315Z,998.69
2022-08-22T16:46:57.265Z,998.71
2022-08-22T16:51:57.188Z,998.79
2022-08-22T16:56:57.132Z,998.75
2022-08-22T17:01:57.136Z,998.73
2022-08-22T17:06:57.044Z,998.71
2022-08-22T17:11:57.022Z,998.79
2022-08-22T17:16:56.970Z,998.77
2022-08-22T17:21:56.806Z,998.78
2022-08-22T17:26:56.752Z,998.74
2022-08-22T17:31:56.673Z,998.76
2022-08-22T17:36:56.614Z,998.79
2022-08-22T17:41:56.551Z,998.84
2022-08-22T17:46:56.479Z,998.86
2022-08-22T17:51:56.408Z,998.92
2022-08-22T17:57:05.533Z,998.96
2022-08-22T18:01:56.274Z,999.00
2022-08-22T18:06:56.552Z,999.06
2022-08-22T18:11:56.145Z,999.07
2022-08-22T18:16:56.099Z,999.14
2022-08-22T18:21:56.018Z,999.22
2022-08-22T18:26:55.968Z,999.24
2022-08-22T18:31:55.897Z,999.25
2022-08-22T18:36:55.836Z,999.28
2022-08-22T18:41:55.767Z,999.36
2022-08-22T18:46:55.699Z,999.39
2022-08-22T18:51:55.628Z,999.51
2022-08-22T18:56:55.575Z,999.55
2022-08-22T19:01:55.545Z,999.55
2022-08-22T19:06:55.434Z,999.52
2022-08-22T19:11:55.363Z,999.51
2022-08-22T19:16:55.316Z,999.54
2022-08-22T19:21:55.240Z,999.57
2022-08-22T19:26:55.185Z,999.60
2022-08-22T19:31:55.101Z,999.66
2022-08-22T19:36:55.054Z,999.75
2022-08-22T19:41:54.983Z,999.76
2022-08-22T19:46:54.928Z,999.81
2022-08-22T19:51:54.846Z,999.84
2022-08-22T19:56:54.796Z,999.84
2022-08-22T20:01:54.732Z,999.81
2022-08-22T20:06:54.660Z,999.85
2022-08-22T20:11:54.600Z,999.77
2022-08-22T20:16:54.531Z,999.81
2022-08-22T20:21:54.467Z,999.76
2022-08-22T20:27:12.743Z,999.78
2022-08-22T20:31:58.653Z,999.76
2022-08-22T20:37:09.872Z,999.83
2022-08-22T20:41:55.236Z,999.91
2022-08-22T20:46:55.015Z,999.88
2022-08-22T20:51:54.062Z,999.83
2022-08-22T20:56:54.048Z,999.90
2022-08-22T21:01:53.930Z,999.94
2022-08-22T21:06:53.880Z,999.91
2022-08-22T21:11:53.799Z,999.97
2022-08-22T21:16:53.739Z,999.93
2022-08-22T21:21:53.663Z,999.91
2022-08-22T21:26:53.609Z,999.92
2022-08-22T21:31:53.531Z,999.94
2022-08-22T21:36:53.471Z,1000.00
2022-08-22T21:41:53.557Z,999.94
2022-08-22T21:46:53.336Z,999.97
2022-08-22T21:51:53.271Z,999.93
2022-08-22T21:56:53.213Z,999.92
2022-08-22T22:01:53.139Z,999.93
2022-08-22T22:06:53.084Z,1000.04
2022-08-22T22:11:53.015Z,1000.05
2022-08-22T22:16:52.951Z,1000.07
2022-08-22T22:21:52.892Z,1000.04
2022-08-22T22:26:52.818Z,1000.00
2022-08-22T22:31:52.746Z,999.92
2022-08-22T22:36:52.689Z,1000.01
2022-08-22T22:41:52.622Z,1000.02
2022-08-22T22:46:52.567Z,1000.00
2022-08-22T22:51:52.499Z,1000.00
2022-08-22T22:56:52.445Z,999.96
2022-08-22T23:01:52.362Z,999.92
2022-08-22T23:06:52.323Z,999.92
2022-08-22T23:11:52.244Z,999.91
2022-08-22T23:16:52.192Z,999.91
2022-08-22T23:21:52.127Z,1000.01
2022-08-22T23:26:52.060Z,1000.07
2022-08-22T23:31:51.996Z,1000.04
2022-08-22T23:36:51.931Z,1000.08
2022-08-22T23:41:51.860Z,1000.14
2022-08-22T23:46:51.802Z,1000.18
2022-08-22T23:51:51.732Z,1000.12
2022-08-22T23:56:51.676Z,1000.11
